Time;durP1;ratioP1;P1;durP2;ratioP2;P2;SDS_P1;SDS_P2;PMS_P1;PMS_P2;Temp;Humidity;BMP_temperature;BMP_pressure;BME280_temperature;BME280_humidity;BME280_pressure;Samples;Min_cycle;Max_cycle;Signal;HPM_P1;HPM_P2
2022/06/29 00:00:43;;;;;;;3.33;3.03;;;20.40;74.50;;;20.63;58.00;97510.63;5022675;28;20068;-38
2022/06/29 00:03:11;;;;;;;5.55;3.30;;;20.40;74.60;;;20.63;57.73;97510.63;5022109;28;20046;-38
2022/06/29 00:05:39;;;;;;;4.10;3.38;;;20.40;74.60;;;20.58;58.27;97500.44;5022541;28;20054;-38
2022/06/29 00:08:07;;;;;;;4.95;3.67;;;20.30;74.90;;;20.55;58.26;97509.03;5022796;28;20054;-38
2022/06/29 00:10:37;;;;;;;4.78;3.97;;;20.30;75.30;;;20.53;58.18;97499.47;5020961;28;20251;-39
2022/06/29 00:13:05;;;;;;;5.93;3.67;;;20.20;75.60;;;20.49;58.34;97501.84;5022202;28;20050;-39
2022/06/29 00:15:33;;;;;;;3.90;3.38;;;20.20;76.00;;;20.46;58.68;97494.19;5021988;28;20227;-39
2022/06/29 00:18:01;;;;;;;5.25;3.88;;;20.10;76.30;;;20.46;58.74;97489.59;5021801;28;20050;-39
2022/06/29 00:20:29;;;;;;;3.90;3.45;;;20.10;76.20;;;20.45;58.75;97487.94;5022247;28;20052;-39
2022/06/29 00:22:56;;;;;;;5.70;4.18;;;20.10;76.10;;;20.44;58.79;97488.16;5023124;28;20075;-39
2022/06/29 00:25:25;;;;;;;4.72;4.18;;;20.10;76.20;;;20.41;58.93;97488.63;5024922;28;20057;-39
2022/06/29 00:27:52;;;;;;;6.88;3.90;;;20.10;76.40;;;20.38;58.65;97489.09;5026185;28;20077;-39
2022/06/29 00:30:20;;;;;;;5.47;3.20;;;20.00;76.30;;;20.36;58.87;97483.91;5026705;28;20156;-39
2022/06/29 00:32:48;;;;;;;4.13;3.72;;;20.10;76.60;;;20.33;58.90;97470.81;5025659;28;20054;-39
2022/06/29 00:35:16;;;;;;;3.85;3.25;;;20.00;76.60;;;20.35;59.13;97467.91;5025347;28;20046;-39
2022/06/29 00:37:44;;;;;;;4.25;3.65;;;20.10;76.70;;;20.35;59.05;97474.13;5025376;28;20050;-39
2022/06/29 00:40:12;;;;;;;3.88;3.55;;;20.10;76.50;;;20.38;58.73;97462.06;5025644;28;20243;-39
2022/06/29 00:42:40;;;;;;;4.45;3.63;;;20.10;76.20;;;20.37;58.74;97461.22;5025361;28;20052;-39
2022/06/29 00:45:09;;;;;;;5.32;3.60;;;20.10;77.10;;;20.34;58.85;97456.28;5025817;28;20079;-39
2022/06/29 00:47:36;;;;;;;4.20;3.65;;;20.10;76.40;;;20.32;59.50;97461.09;5024858;28;20244;-39
2022/06/29 00:50:05;;;;;;;3.70;3.40;;;20.00;77.00;;;20.32;59.27;97457.56;5025728;28;20056;-39
2022/06/29 00:52:41;;;;;;;3.75;3.45;;;20.00;77.20;;;20.30;59.30;97460.50;5025630;28;20088;-39
2022/06/29 00:55:18;;;;;;;5.07;3.10;;;20.00;77.30;;;20.30;59.25;97460.50;5025300;28;20056;-39
2022/06/29 00:57:48;;;;;;;3.75;3.45;;;20.10;77.50;;;20.30;59.49;97463.19;5024945;28;20439;-39
2022/06/29 01:00:16;;;;;;;3.90;3.50;;;20.00;77.40;;;20.33;59.51;97464.59;5023907;28;20269;-39
2022/06/29 01:02:45;;;;;;;4.55;4.15;;;20.00;77.00;;;20.23;59.56;97454.34;5025188;28;20216;-39
2022/06/29 01:05:14;;;;;;;4.35;3.95;;;19.90;77.40;;;20.22;59.36;97460.78;5023795;28;20050;-39
2022/06/29 01:07:42;;;;;;;4.13;3.72;;;19.90;77.80;;;20.24;59.57;97456.81;5025179;28;20243;-39
2022/06/29 01:10:10;;;;;;;4.40;4.00;;;19.90;77.80;;;20.25;59.48;97458.44;5024904;28;20340;-39
2022/06/29 01:12:38;;;;;;;4.25;3.85;;;20.00;77.50;;;20.23;59.62;97454.34;5024473;28;20049;-39
2022/06/29 01:15:06;;;;;;;5.57;3.83;;;20.00;77.60;;;20.22;59.41;97464.34;5024495;28;20041;-39
2022/06/29 01:17:35;;;;;;;6.75;4.35;;;19.90;78.00;;;20.20;59.48;97462.88;5025081;28;20050;-39
2022/06/29 01:20:03;;;;;;;4.70;4.30;;;19.80;78.20;;;20.15;59.52;97463.56;5024793;28;20244;-39
2022/06/29 01:22:31;;;;;;;5.25;4.75;;;19.80;78.40;;;20.16;59.62;97459.00;5024713;28;20045;-39
2022/06/29 01:24:59;;;;;;;4.78;4.32;;;19.80;78.70;;;20.13;59.60;97454.06;5024459;28;20046;-38
2022/06/29 01:27:27;;;;;;;4.85;3.97;;;19.70;79.00;;;20.10;59.69;97460.72;5024447;28;20050;-38
2022/06/29 01:29:55;;;;;;;4.65;4.15;;;19.70;79.20;;;20.08;60.08;97462.00;5024672;28;20362;-38
2022/06/29 01:32:23;;;;;;;4.85;4.03;;;19.70;79.40;;;20.05;59.87;97458.72;5024636;28;20267;-39
2022/06/29 01:34:52;;;;;;;4.53;4.13;;;19.70;79.60;;;20.04;60.16;97464.34;5024726;28;20054;-39
2022/06/29 01:37:20;;;;;;;5.07;4.53;;;19.70;79.90;;;20.03;60.01;97460.00;5024352;28;20042;-39
2022/06/29 01:39:47;;;;;;;5.35;4.03;;;19.70;80.00;;;20.03;60.15;97465.41;5024910;28;20066;-39
2022/06/29 01:42:16;;;;;;;4.78;4.32;;;19.70;80.10;;;19.99;60.25;97466.91;5024492;28;20045;-39
2022/06/29 01:44:44;;;;;;;4.00;3.42;;;19.60;80.50;;;19.95;60.55;97471.09;5024095;28;20101;-39
2022/06/29 01:47:12;;;;;;;3.88;3.58;;;19.60;81.30;;;19.90;60.41;97465.56;5024125;28;20154;-39
2022/06/29 01:49:40;;;;;;;4.43;4.03;;;19.50;81.70;;;19.86;60.62;97460.59;5023915;28;20222;-39
2022/06/29 01:52:08;;;;;;;4.70;3.72;;;19.50;81.80;;;19.84;60.85;97454.59;5024010;28;20060;-40
2022/06/29 01:54:36;;;;;;;4.35;3.67;;;19.50;81.90;;;19.86;60.91;97460.59;5024249;28;20056;-40
2022/06/29 01:57:04;;;;;;;4.55;4.10;;;19.50;81.60;;;19.86;60.86;97459.78;5024073;28;20050;-40
2022/06/29 01:59:32;;;;;;;4.82;4.32;;;19.50;81.60;;;19.86;60.93;97462.47;5023870;28;20046;-40
2022/06/29 02:02:00;;;;;;;4.30;3.90;;;19.60;81.80;;;19.85;61.16;97453.56;5024631;28;20060;-40
2022/06/29 02:04:28;;;;;;;5.35;4.05;;;19.60;81.70;;;19.86;60.97;97459.78;5023908;28;20225;-40
2022/06/29 02:06:56;;;;;;;5.80;4.40;;;19.60;81.80;;;19.88;61.12;97463.06;5039785;28;20061;-39
2022/06/29 02:09:23;;;;;;;5.25;4.65;;;19.60;81.80;;;19.92;61.01;97458.03;5023700;28;20263;-40
2022/06/29 02:11:51;;;;;;;4.88;3.75;;;19.70;81.70;;;19.95;61.11;97452.16;5022601;28;20053;-39
2022/06/29 02:14:19;;;;;;;4.85;4.30;;;19.80;81.60;;;19.97;60.99;97448.22;5024377;28;20226;-39
2022/06/29 02:16:47;;;;;;;4.78;3.75;;;19.80;81.00;;;19.98;60.79;97449.03;5023813;28;20071;-39
2022/06/29 02:19:15;;;;;;;4.35;3.95;;;19.80;81.10;;;19.99;60.79;97456.09;5023398;28;20046;-39
2022/06/29 02:21:42;;;;;;;5.50;4.35;;;19.70;81.20;;;19.99;60.68;97451.50;5023478;28;20216;-39
2022/06/29 02:24:11;;;;;;;5.45;4.95;;;19.70;81.20;;;19.98;60.88;97447.16;5023506;28;20352;-40
2022/06/29 02:26:38;;;;;;;5.72;4.80;;;19.70;81.30;;;19.99;60.92;97448.00;5023573;28;20050;-40
2022/06/29 02:29:06;;;;;;;5.43;4.68;;;19.70;81.50;;;19.96;60.91;97451.97;5023789;28;20053;-39
2022/06/29 02:37:07;;;;;;;4.93;4.30;;;19.70;82.00;;;19.91;60.94;97442.88;5023364;28;20358;-39
2022/06/29 02:39:35;;;;;;;5.10;4.57;;;19.60;81.90;;;19.90;61.21;97442.06;5022925;28;20056;-39
2022/06/29 02:42:03;;;;;;;4.60;4.20;;;19.60;82.10;;;19.90;61.22;97435.84;5022989;28;20048;-39
2022/06/29 02:44:31;;;;;;;5.97;4.28;;;19.60;81.90;;;19.88;61.21;97432.53;5023201;28;20344;-39
2022/06/29 02:46:59;;;;;;;4.35;3.95;;;19.60;81.90;;;19.90;60.78;97433.13;5023087;28;20058;-39
2022/06/29 02:49:27;;;;;;;5.90;4.90;;;19.60;81.70;;;19.92;60.96;97431.03;5023785;28;20064;-39
2022/06/29 02:51:55;;;;;;;5.45;4.10;;;19.60;81.70;;;19.91;60.93;97419.41;5023351;28;20352;-39
2022/06/29 02:54:22;;;;;;;4.82;4.32;;;19.60;81.60;;;19.91;60.99;97418.56;5023396;28;20064;-39
2022/06/29 02:56:51;;;;;;;5.28;3.83;;;19.60;81.90;;;19.89;61.09;97423.38;5022911;28;20045;-40
2022/06/29 02:59:19;;;;;;;5.22;4.40;;;19.60;82.10;;;19.87;61.09;97418.19;5022662;28;20049;-39
2022/06/29 03:01:47;;;;;;;4.38;3.97;;;19.60;82.20;;;19.85;61.06;97415.72;5022936;28;20244;-39
2022/06/29 03:04:15;;;;;;;4.70;4.28;;;19.50;82.30;;;19.83;61.22;97414.28;5022780;28;20062;-39
2022/06/29 03:06:43;;;;;;;4.78;4.25;;;19.50;82.60;;;19.83;61.04;97419.69;5022752;28;20362;-39
2022/06/29 03:09:10;;;;;;;5.00;4.50;;;19.50;82.60;;;19.81;61.21;97419.09;5022553;28;20054;-40
2022/06/29 03:11:38;;;;;;;6.68;4.68;;;19.50;82.80;;;19.75;61.46;97418.13;5022173;28;20121;-39
2022/06/29 03:14:06;;;;;;;4.03;3.72;;;19.40;83.30;;;19.71;61.51;97413.38;5022545;28;20054;-39
2022/06/29 03:16:34;;;;;;;4.57;3.67;;;19.40;83.50;;;19.68;61.69;97417.34;5022600;28;20050;-39
2022/06/29 03:19:02;;;;;;;4.38;3.83;;;19.40;83.50;;;19.63;61.64;97418.00;5022563;28;20041;-39
2022/06/29 03:21:30;;;;;;;4.82;3.92;;;19.30;83.90;;;19.62;61.75;97415.56;5022588;28;20045;-39
2022/06/29 03:23:57;;;;;;;5.05;4.28;;;19.30;84.20;;;19.60;61.74;97421.19;5022501;28;20052;-39
2022/06/29 03:26:25;;;;;;;4.68;3.97;;;19.30;84.00;;;19.61;61.79;97417.41;5022616;28;20049;-39
2022/06/29 03:28:55;;;;;;;8.00;4.25;;;19.30;84.00;;;19.62;61.68;97410.97;5023334;28;20049;-39
2022/06/29 03:31:23;;;;;;;4.85;3.92;;;19.40;83.70;;;19.64;61.68;97421.56;5023073;28;20068;-39
2022/06/29 03:33:51;;;;;;;6.70;4.88;;;19.40;83.90;;;19.63;61.61;97417.19;5022640;28;20072;-39
2022/06/29 03:36:19;;;;;;;6.70;4.45;;;19.40;83.70;;;19.59;61.64;97422.22;5022437;28;20049;-40
2022/06/29 03:38:47;;;;;;;4.95;4.28;;;19.30;83.90;;;19.58;61.76;97417.03;5022882;28;20060;-39
2022/06/29 03:41:14;;;;;;;6.65;4.97;;;19.30;84.20;;;19.59;61.75;97421.41;5022451;28;20259;-38
2022/06/29 03:43:42;;;;;;;3.88;3.58;;;19.30;84.60;;;19.59;61.79;97424.09;5022007;28;20046;-38
2022/06/29 03:46:10;;;;;;;6.20;3.95;;;19.30;84.40;;;19.60;61.72;97425.72;5022298;28;20046;-39
2022/06/29 03:48:38;;;;;;;4.55;4.13;;;19.30;84.50;;;19.58;61.97;97434.06;5022287;28;20049;-39
2022/06/29 03:51:06;;;;;;;6.25;4.53;;;19.30;84.50;;;19.58;61.85;97428.69;5023009;28;20259;-39
2022/06/29 03:53:33;;;;;;;5.78;4.38;;;19.30;84.50;;;19.58;61.99;97417.03;5022162;28;20268;-39
2022/06/29 03:56:01;;;;;;;5.45;4.95;;;19.30;84.40;;;19.56;61.93;97436.19;5021842;28;20049;-39
2022/06/29 03:58:29;;;;;;;4.88;4.47;;;19.30;84.70;;;19.52;62.17;97423.34;5022710;28;20060;-39
2022/06/29 04:00:57;;;;;;;5.03;4.63;;;19.20;84.90;;;19.48;62.13;97418.41;5026305;28;20336;-39
2022/06/29 04:03:25;;;;;;;6.15;3.95;;;19.20;85.20;;;19.49;61.95;97416.53;5041465;28;20345;-39
2022/06/29 04:05:52;;;;;;;5.22;3.95;;;19.20;84.90;;;19.50;61.94;97414.63;5026163;28;20042;-39
2022/06/29 04:08:20;;;;;;;5.05;4.60;;;19.20;84.90;;;19.47;62.02;97408.63;5026029;28;20050;-39
2022/06/29 04:10:48;;;;;;;5.50;4.10;;;19.20;85.00;;;19.44;62.04;97405.56;5025641;28;20056;-39
2022/06/29 04:13:16;;;;;;;7.75;4.68;;;19.10;85.30;;;19.44;62.28;97408.25;5026129;28;20265;-39
2022/06/29 04:15:44;;;;;;;4.95;4.53;;;19.10;85.50;;;19.43;62.26;97410.13;5026118;28;20052;-38
2022/06/29 04:18:12;;;;;;;8.80;5.20;;;19.10;85.70;;;19.41;62.19;97400.63;5026190;28;20046;-39
2022/06/29 04:23:26;;;;;;;5.93;4.97;;;19.10;85.90;;;19.43;62.15;97401.22;5026248;28;20229;-39
2022/06/29 04:25:54;;;;;;;5.90;5.30;;;19.10;85.70;;;19.45;62.30;97404.53;5025822;28;20045;-39
2022/06/29 04:28:22;;;;;;;5.03;4.63;;;19.20;85.60;;;19.43;62.36;97404.75;5026133;28;20353;-39
2022/06/29 04:30:50;;;;;;;5.20;4.70;;;19.20;85.90;;;19.43;62.56;97409.31;5025754;28;20056;-39
2022/06/29 04:33:18;;;;;;;6.20;4.57;;;19.20;86.00;;;19.43;62.55;97404.75;5024451;28;20050;-39
2022/06/29 04:35:46;;;;;;;6.82;4.15;;;19.20;86.20;;;19.45;62.66;97402.63;5025576;28;20076;-39
2022/06/29 04:38:14;;;;;;;4.95;4.45;;;19.30;86.20;;;19.49;62.76;97403.03;5026042;28;20060;-39
2022/06/29 04:40:42;;;;;;;4.75;4.30;;;19.30;86.20;;;19.53;62.74;97406.09;5025949;28;20057;-38
2022/06/29 04:43:09;;;;;;;5.47;4.40;;;19.30;86.40;;;19.53;62.96;97408.81;5025587;28;20048;-39
2022/06/29 04:48:23;;;;;;;6.10;5.05;;;19.30;87.20;;;19.47;63.19;97405.13;5025857;28;20054;-39
2022/06/29 04:50:51;;;;;;;6.20;4.53;;;19.20;87.90;;;19.48;63.25;97407.59;5025362;28;20052;-39
2022/06/29 04:53:19;;;;;;;5.85;4.80;;;19.20;88.40;;;19.52;63.45;97410.66;5025186;28;20046;-39
2022/06/29 04:55:47;;;;;;;4.68;4.18;;;19.30;88.80;;;19.55;63.31;97420.19;5025214;28;20336;-39
2022/06/29 04:58:15;;;;;;;7.68;4.45;;;19.40;88.30;;;19.59;63.41;97416.00;5024770;28;20048;-39
2022/06/29 05:00:42;;;;;;;7.65;4.78;;;19.40;87.90;;;19.63;63.28;97418.00;5025206;28;20241;-39
2022/06/29 05:03:10;;;;;;;5.25;4.75;;;19.50;87.70;;;19.65;63.22;97421.31;5025099;28;20344;-39
2022/06/29 05:05:38;;;;;;;4.72;3.97;;;19.50;87.30;;;19.71;63.38;97416.06;5024495;28;20049;-38
2022/06/29 05:08:06;;;;;;;5.10;4.25;;;19.60;87.00;;;19.78;63.00;97411.47;5024494;28;20053;-39
2022/06/29 05:10:34;;;;;;;8.10;5.50;;;19.70;86.50;;;19.81;62.89;97414.53;5024020;28;20065;-39
2022/06/29 05:13:02;;;;;;;4.70;4.30;;;19.70;85.70;;;19.82;62.73;97413.47;5024742;28;20048;-39
2022/06/29 05:15:30;;;;;;;7.18;4.38;;;19.70;85.60;;;19.88;62.83;97413.63;5024531;28;20056;-39
2022/06/29 05:17:58;;;;;;;4.97;4.45;;;19.80;85.20;;;19.95;62.57;97408.94;5024927;28;20052;-39
2022/06/29 05:20:26;;;;;;;4.80;4.40;;;19.90;84.70;;;20.02;62.42;97413.22;5024331;28;20056;-39
2022/06/29 05:22:54;;;;;;;5.55;4.65;;;20.00;83.70;;;20.05;61.97;97412.78;5024537;28;20218;-39
2022/06/29 05:25:22;;;;;;;6.85;5.22;;;20.00;83.00;;;20.09;61.86;97413.16;5024997;28;20050;-39
2022/06/29 05:27:51;;;;;;;5.82;4.85;;;20.00;82.30;;;20.08;61.58;97411.47;5024119;28;20041;-39
2022/06/29 05:30:19;;;;;;;5.63;4.90;;;20.00;81.80;;;20.13;61.37;97410.81;5024389;28;20243;-39
2022/06/29 05:32:47;;;;;;;5.90;4.60;;;20.10;81.40;;;20.15;61.31;97424.94;5024257;28;20065;-38
2022/06/29 05:35:15;;;;;;;4.43;4.03;;;20.10;81.30;;;20.20;61.67;97419.66;5024064;28;20050;-38
2022/06/29 05:37:43;;;;;;;5.75;4.45;;;20.20;81.30;;;20.26;61.53;97416.88;5023824;28;20050;-39
2022/06/29 05:40:11;;;;;;;5.95;4.25;;;20.20;81.40;;;20.32;61.53;97408.91;5024077;28;20046;-38
2022/06/29 05:42:38;;;;;;;5.57;5.07;;;20.30;81.50;;;20.39;61.78;97417.72;5024285;28;20240;-39
2022/06/29 05:45:07;;;;;;;5.57;5.07;;;20.40;81.80;;;20.43;61.73;97419.75;5024175;28;20148;-39
2022/06/29 05:47:35;;;;;;;6.43;4.65;;;20.40;81.70;;;20.47;61.93;97414.69;5024512;28;20344;-38
2022/06/29 05:50:03;;;;;;;6.70;4.78;;;20.50;81.50;;;20.51;61.85;97428.59;5023605;28;20052;-38
2022/06/29 05:52:31;;;;;;;4.93;4.25;;;20.50;81.30;;;20.53;61.71;97421.91;5025081;28;20060;-39
2022/06/29 05:54:58;;;;;;;6.85;5.47;;;20.50;81.10;;;20.56;61.48;97426.84;5023617;28;20050;-38
2022/06/29 05:57:27;;;;;;;9.57;4.78;;;20.50;81.10;;;20.58;61.57;97426.63;5023999;28;20045;-39
2022/06/29 05:59:55;;;;;;;5.60;4.68;;;20.50;80.90;;;20.61;61.34;97423.50;5023914;28;20057;-39
2022/06/29 06:02:23;;;;;;;9.32;5.18;;;20.60;80.90;;;20.64;61.03;97434.66;5023921;28;20044;-40
2022/06/29 06:04:52;;;;;;;9.88;5.70;;;20.60;80.50;;;20.67;61.27;97435.28;5024040;28;20045;-39
2022/06/29 06:07:20;;;;;;;10.52;5.68;;;20.70;80.60;;;20.74;61.35;97427.84;5024204;28;20053;-39
2022/06/29 06:09:48;;;;;;;9.65;5.32;;;20.70;80.80;;;20.81;61.40;97432.13;5023923;28;20060;-39
2022/06/29 06:12:16;;;;;;;8.55;5.28;;;20.90;80.60;;;20.89;61.21;97430.94;5023064;28;20052;-39
2022/06/29 06:14:44;;;;;;;8.63;5.60;;;21.00;80.30;;;20.97;61.40;97427.09;5023342;28;20271;-39
2022/06/29 06:17:12;;;;;;;9.50;4.60;;;21.20;79.90;;;21.08;61.44;97423.56;5022453;28;20044;-39
2022/06/29 06:19:40;;;;;;;7.53;5.10;;;21.30;79.40;;;21.08;60.97;97428.16;5023242;28;20042;-39
2022/06/29 06:22:08;;;;;;;10.05;4.90;;;21.30;78.70;;;21.13;60.80;97434.53;5022705;28;20056;-39
2022/06/29 06:24:36;;;;;;;7.60;5.43;;;21.30;78.50;;;21.13;60.56;97430.97;5024112;28;20050;-39
2022/06/29 06:27:04;;;;;;;8.73;5.30;;;21.20;77.30;;;21.15;60.42;97423.44;5023771;28;20060;-39
2022/06/29 06:29:31;;;;;;;6.90;5.53;;;21.20;78.50;;;21.18;60.58;97423.81;5021991;28;20060;-39
2022/06/29 06:32:01;;;;;;;7.90;5.45;;;21.20;78.10;;;21.14;60.33;97419.09;5023835;28;20257;-39
2022/06/29 06:34:29;;;;;;;7.65;5.95;;;21.10;78.80;;;21.15;60.76;97420.75;5023567;28;20054;-39
2022/06/29 06:36:57;;;;;;;8.35;5.85;;;21.10;78.70;;;21.14;60.56;97427.22;5023389;28;20056;-39
2022/06/29 06:39:26;;;;;;;6.63;5.93;;;21.10;79.80;;;21.17;60.39;97432.16;5022859;28;20056;-39
2022/06/29 06:41:54;;;;;;;7.50;5.22;;;21.20;78.60;;;21.23;60.83;97425.84;5023207;28;20239;-40
2022/06/29 06:44:22;;;;;;;6.03;5.43;;;21.30;78.50;;;21.32;61.17;97437.94;5022938;28;20256;-39
2022/06/29 06:46:51;;;;;;;4.85;4.45;;;21.40;78.80;;;21.38;60.95;97433.47;5022393;28;20046;-39
2022/06/29 06:49:25;;;;;;;5.97;5.38;;;21.50;79.30;;;21.42;60.96;97429.22;5023102;28;20053;-39
2022/06/29 06:51:53;;;;;;;6.10;5.03;;;21.60;79.20;;;21.49;61.26;97429.16;5023052;28;20049;-39
2022/06/29 06:54:21;;;;;;;7.18;5.25;;;21.60;79.10;;;21.57;61.09;97428.78;5022909;28;20050;-39
2022/06/29 06:56:49;;;;;;;6.97;5.43;;;21.70;79.20;;;21.58;60.64;97428.56;5022959;28;20056;-39
2022/06/29 06:59:17;;;;;;;8.45;5.63;;;21.70;78.60;;;21.64;60.99;97429.50;5022565;28;20046;-39
2022/06/29 07:01:45;;;;;;;6.30;5.10;;;21.80;78.60;;;21.66;61.00;97430.06;5022816;28;20046;-39
2022/06/29 07:04:16;;;;;;;5.88;4.88;;;21.70;78.60;;;21.72;60.90;97429.13;5022698;28;20052;-40
2022/06/29 07:06:44;;;;;;;5.30;4.72;;;21.80;78.50;;;21.75;59.82;97430.53;5023222;28;20056;-40
2022/06/29 07:09:12;;;;;;;5.13;4.63;;;21.80;76.90;;;21.74;59.57;97428.88;5022985;28;20091;-40
2022/06/29 07:11:40;;;;;;;4.40;4.00;;;21.80;76.10;;;21.75;59.52;97425.09;5022552;28;20289;-39
2022/06/29 07:14:08;;;;;;;4.60;4.20;;;21.80;75.90;;;21.77;59.15;97428.38;5022518;28;20053;-39
2022/06/29 07:16:35;;;;;;;5.47;4.65;;;21.80;75.90;;;21.82;59.29;97431.22;5022706;28;20056;-40
2022/06/29 07:19:03;;;;;;;6.68;4.75;;;21.90;76.10;;;21.76;58.53;97424.06;5023232;28;20052;-39
2022/06/29 07:21:31;;;;;;;5.53;4.40;;;21.80;74.60;;;21.73;58.24;97428.06;5022979;28;20056;-39
2022/06/29 07:23:59;;;;;;;6.72;5.85;;;21.70;72.70;;;21.74;58.13;97431.59;5022488;28;20042;-39
2022/06/29 07:26:27;;;;;;;5.30;4.15;;;21.70;74.40;;;21.68;57.98;97432.56;5023215;28;20056;-40
2022/06/29 07:28:55;;;;;;;4.57;4.18;;;21.70;73.80;;;21.73;58.36;97427.22;5022305;28;20056;-39
2022/06/29 07:31:23;;;;;;;5.25;4.70;;;21.70;74.30;;;21.69;58.47;97431.47;5023133;28;20063;-39
2022/06/29 07:33:51;;;;;;;4.75;4.32;;;21.80;73.90;;;21.72;58.66;97428.31;5022102;28;20050;-39
2022/06/29 07:36:18;;;;;;;6.82;4.88;;;21.70;74.20;;;21.74;58.51;97428.88;5022281;28;20486;-39
2022/06/29 07:38:46;;;;;;;5.82;4.47;;;21.80;74.30;;;21.71;58.86;97422.03;5022093;28;20051;-39
2022/06/29 07:41:15;;;;;;;5.35;4.80;;;21.80;74.20;;;21.65;58.50;97433.00;5022386;28;20262;-39
2022/06/29 07:43:43;;;;;;;5.20;4.70;;;21.70;74.10;;;21.67;58.64;97436.31;5022252;28;20333;-39
2022/06/29 07:46:11;;;;;;;8.32;4.55;;;21.70;74.80;;;21.73;58.25;97438.06;5022030;28;20263;-39
2022/06/29 07:48:39;;;;;;;5.90;4.80;;;21.80;73.90;;;21.76;58.47;97433.00;5022497;28;20083;-40
2022/06/29 07:51:07;;;;;;;6.25;4.80;;;21.80;74.20;;;21.81;59.05;97433.13;5022451;28;20128;-38
2022/06/29 07:53:35;;;;;;;5.25;4.75;;;21.90;74.50;;;21.77;58.88;97439.22;5022660;28;20049;-39
2022/06/29 07:56:03;;;;;;;5.22;4.72;;;21.90;74.00;;;21.86;58.56;97437.00;5021935;28;20060;-39
2022/06/29 07:58:31;;;;;;;7.28;4.82;;;22.00;73.70;;;21.91;58.63;97434.41;5022185;28;20054;-38
2022/06/29 08:00:59;;;;;;;6.70;4.60;;;22.10;73.40;;;21.94;58.43;97432.00;5022064;28;20048;-39
2022/06/29 08:03:27;;;;;;;4.85;4.40;;;22.10;73.50;;;21.94;58.83;97431.19;5022147;28;20048;-39
2022/06/29 08:05:55;;;;;;;7.38;5.20;;;22.10;73.80;;;21.97;58.55;97420.69;5021970;28;20046;-39
2022/06/29 08:08:23;;;;;;;5.78;5.03;;;22.20;73.00;;;21.99;58.18;97429.41;5021788;28;20042;-39
2022/06/29 08:10:51;;;;;;;5.53;4.65;;;22.10;72.90;;;22.08;58.50;97427.16;5021210;28;20050;-38
2022/06/29 08:13:19;;;;;;;4.95;4.28;;;22.20;73.50;;;22.07;58.55;97427.41;5022933;28;20050;-38
2022/06/29 08:15:47;;;;;;;4.70;4.28;;;22.20;73.00;;;22.12;57.74;97425.63;5021773;28;20046;-39
2022/06/29 08:18:16;;;;;;;5.72;4.68;;;22.30;72.40;;;22.13;58.29;97429.97;5021644;28;20049;-39
2022/06/29 08:20:44;;;;;;;8.05;4.72;;;22.40;72.40;;;22.20;58.39;97427.94;5021799;28;20050;-40
2022/06/29 08:23:12;;;;;;;5.82;4.85;;;22.40;72.90;;;22.23;57.76;97422.00;5022620;28;20202;-38
2022/06/29 08:25:39;;;;;;;5.95;4.65;;;22.40;72.20;;;22.31;57.84;97420.03;5020965;28;20046;-39
2022/06/29 08:28:26;;;;;;;6.43;4.45;;;22.50;71.80;;;22.42;57.79;97421.88;5021720;28;20056;-38
2022/06/29 08:30:54;;;;;;;6.65;4.75;;;22.60;71.60;;;22.53;57.39;97426.41;5021956;28;20052;-40
2022/06/29 08:33:22;;;;;;;6.40;5.30;;;22.80;70.70;;;22.60;56.58;97424.38;5021784;28;20046;-40
2022/06/29 08:35:51;;;;;;;6.97;5.28;;;22.90;69.00;;;22.70;56.45;97428.34;5021825;28;20238;-39
2022/06/29 08:38:19;;;;;;;6.55;5.10;;;23.00;69.00;;;22.81;56.48;97422.03;5021679;28;20265;-40
2022/06/29 08:40:49;;;;;;;6.63;4.32;;;23.20;68.50;;;22.87;55.69;97420.22;5021726;28;20068;-40
2022/06/29 08:43:19;;;;;;;6.90;4.22;;;23.40;67.50;;;22.98;55.33;97422.03;5022487;28;20060;-40
2022/06/29 08:45:49;;;;;;;5.68;5.10;;;23.40;66.60;;;23.12;55.28;97428.81;5023622;28;20048;-39
2022/06/29 08:48:17;;;;;;;5.82;4.32;;;23.50;66.50;;;23.23;55.70;97426.28;5025136;28;20109;-40
2022/06/29 08:51:05;;;;;;;5.40;4.65;;;23.70;67.10;;;23.38;55.67;97423.78;5023643;28;20226;-40
2022/06/29 08:53:36;;;;;;;5.85;4.60;;;23.90;65.60;;;23.52;55.32;97429.69;5024341;28;20056;-40
2022/06/29 08:56:05;;;;;;;6.03;5.45;;;24.00;66.10;;;23.52;54.03;97424.25;5025089;28;20050;-40
2022/06/29 08:58:35;;;;;;;5.45;4.45;;;23.90;64.50;;;23.38;53.22;97421.88;5024936;28;20054;-40
2022/06/29 09:01:02;;;;;;;7.68;4.90;;;23.70;63.50;;;23.39;53.35;97423.50;5024105;28;20056;-39
2022/06/29 09:03:30;;;;;;;7.05;4.63;;;23.70;63.90;;;23.50;53.90;97420.97;5025163;28;20056;-39
2022/06/29 09:06:01;;;;;;;5.25;3.95;;;23.70;66.10;;;23.66;54.25;97424.72;5024840;28;20438;-38
2022/06/29 09:08:32;;;;;;;5.47;4.90;;;24.00;65.40;;;23.73;52.71;97430.78;5024812;28;20052;-38
2022/06/29 09:11:25;;;;;;;6.18;4.72;;;24.10;62.20;;;23.79;52.79;97424.38;5024115;28;20056;-40
2022/06/29 09:14:16;;;;;;;6.97;4.85;;;24.20;62.00;;;23.89;52.09;97426.41;5024900;28;20050;-39
2022/06/29 09:17:02;;;;;;;6.53;4.53;;;24.30;61.30;;;23.90;52.93;97425.31;5024896;28;20056;-38
2022/06/29 09:19:43;;;;;;;6.05;4.63;;;24.30;62.00;;;23.97;51.94;97424.06;5024560;28;20052;-39
2022/06/29 09:22:12;;;;;;;7.43;4.90;;;24.30;62.20;;;24.05;52.25;97422.81;5024788;28;20041;-39
2022/06/29 09:24:40;;;;;;;4.82;4.43;;;24.40;62.10;;;24.10;51.87;97422.88;5024596;28;20243;-39
2022/06/29 09:27:28;;;;;;;4.70;3.72;;;24.50;61.50;;;24.22;52.04;97424.63;5023340;28;20048;-39
2022/06/29 09:29:56;;;;;;;6.40;4.20;;;24.60;61.60;;;24.23;51.00;97429.81;5024650;28;20052;-39
2022/06/29 09:32:28;;;;;;;6.57;4.20;;;24.60;59.30;;;24.18;51.33;97418.88;5025550;28;20049;-39
2022/06/29 09:34:55;;;;;;;7.53;4.38;;;24.50;61.00;;;24.17;51.30;97415.34;5025154;28;20064;-39
2022/06/29 09:37:24;;;;;;;5.78;4.40;;;24.40;61.10;;;24.26;51.17;97417.63;5024075;28;20037;-39
2022/06/29 09:39:55;;;;;;;6.45;4.43;;;24.50;60.50;;;24.21;51.59;97421.06;5024255;28;20038;-39
2022/06/29 09:42:26;;;;;;;6.70;4.38;;;24.50;61.30;;;24.25;51.62;97424.94;5025106;28;20050;-39
2022/06/29 09:44:54;;;;;;;4.80;4.40;;;24.40;61.40;;;24.26;51.81;97421.16;5024094;28;20050;-39
2022/06/29 09:47:23;;;;;;;6.07;4.97;;;24.50;61.70;;;24.22;51.34;97425.47;5024556;28;20252;-39
2022/06/29 09:50:00;;;;;;;5.90;5.30;;;24.40;61.20;;;24.20;51.56;97422.16;5023892;28;20064;-39
2022/06/29 09:52:28;;;;;;;5.60;4.45;;;24.40;60.80;;;24.05;51.80;97424.72;5024137;28;20248;-38
2022/06/29 09:55:00;;;;;;;5.85;5.20;;;24.30;61.80;;;24.07;51.56;97430.72;5023922;28;20324;-38
2022/06/29 09:57:31;;;;;;;4.35;3.92;;;24.30;61.10;;;24.05;52.45;97430.94;5023934;28;20336;-39
2022/06/29 10:02:55;;;;;;;4.43;4.03;;;24.40;61.80;;;24.17;51.94;97425.38;5024649;28;20121;-38
2022/06/29 10:05:54;;;;;;;5.45;4.28;;;24.40;62.10;;;24.28;51.75;97423.63;5024325;28;20251;-39
2022/06/29 10:08:14;;;;;;;4.28;3.85;;;24.50;61.00;;;24.31;51.86;97425.81;5023463;28;20080;-39
2022/06/29 10:10:46;;;;;;;5.97;4.13;;;24.60;60.30;;;24.38;51.34;97424.53;5021943;28;20107;-39
2022/06/29 10:13:39;;;;;;;5.72;4.22;;;24.70;60.40;;;24.50;51.39;97418.13;5023005;28;20316;-39
2022/06/29 10:16:16;;;;;;;4.60;4.20;;;24.80;60.00;;;24.61;51.29;97417.19;5022968;28;20241;-39
2022/06/29 10:19:32;;;;;;;6.95;5.07;;;25.00;60.10;;;24.76;51.00;97416.53;5024136;28;20352;-39
2022/06/29 10:22:01;;;;;;;4.68;4.25;;;25.20;58.60;;;24.38;50.15;97426.44;5024287;28;20060;-39
2022/06/29 10:24:30;;;;;;;6.05;5.45;;;24.60;59.10;;;24.28;50.95;97413.56;5024346;28;20064;-40
2022/06/29 10:27:06;;;;;;;4.97;4.40;;;24.40;59.80;;;24.37;51.30;97412.03;5023450;28;20049;-40
2022/06/29 10:29:35;;;;;;;6.50;5.00;;;24.50;61.30;;;24.44;50.90;97416.44;5023262;28;20057;-40
2022/06/29 10:32:11;;;;;;;7.07;4.40;;;24.70;60.30;;;24.44;50.97;97422.69;5023728;28;20053;-39
2022/06/29 10:35:06;;;;;;;4.88;4.07;;;24.70;59.70;;;24.58;51.36;97412.25;5023687;28;20144;-40
2022/06/29 10:37:30;;;;;;;7.13;4.72;;;24.90;60.90;;;24.55;51.02;97408.16;5022989;28;20349;-38
2022/06/29 10:40:04;;;;;;;4.72;4.32;;;24.90;59.80;;;24.63;50.85;97415.03;5023225;28;20320;-39
2022/06/29 10:45:46;;;;;;;4.30;3.90;;;25.20;59.30;;;24.81;49.88;97410.28;5022827;28;20052;-39